sensor_id;sensor_type;location;lat;lon;timestamp;P1;durP1;ratioP1;P2;durP2;ratioP2
61903;SDS011;47857;52.270;6.804;2023-03-04T00:01:53;27.33;;;3.50;;
61903;SDS011;47857;52.270;6.804;2023-03-04T00:04:19;22.73;;;3.08;;
61903;SDS011;47857;52.270;6.804;2023-03-04T00:06:44;19.33;;;3.45;;
61903;SDS011;47857;52.270;6.804;2023-03-04T00:09:13;29.15;;;3.25;;
61903;SDS011;47857;52.270;6.804;2023-03-04T00:11:38;18.80;;;3.13;;
61903;SDS011;47857;52.270;6.804;2023-03-04T00:14:04;24.85;;;2.80;;
61903;SDS011;47857;52.270;6.804;2023-03-04T00:16:29;22.80;;;3.05;;
61903;SDS011;47857;52.270;6.804;2023-03-04T00:18:56;21.98;;;2.95;;
61903;SDS011;47857;52.270;6.804;2023-03-04T00:21:22;19.73;;;3.78;;
61903;SDS011;47857;52.270;6.804;2023-03-04T00:23:48;25.38;;;3.30;;
61903;SDS011;47857;52.270;6.804;2023-03-04T00:26:15;20.27;;;3.05;;
61903;SDS011;47857;52.270;6.804;2023-03-04T00:28:42;23.70;;;3.22;;
61903;SDS011;47857;52.270;6.804;2023-03-04T00:31:07;24.02;;;3.10;;
61903;SDS011;47857;52.270;6.804;2023-03-04T00:33:34;20.88;;;3.35;;
61903;SDS011;47857;52.270;6.804;2023-03-04T00:35:59;19.95;;;2.92;;
61903;SDS011;47857;52.270;6.804;2023-03-04T00:38:25;21.30;;;2.70;;
61903;SDS011;47857;52.270;6.804;2023-03-04T00:40:51;26.30;;;3.60;;
61903;SDS011;47857;52.270;6.804;2023-03-04T00:43:16;18.80;;;3.08;;
61903;SDS011;47857;52.270;6.804;2023-03-04T00:45:42;21.98;;;2.50;;
61903;SDS011;47857;52.270;6.804;2023-03-04T00:48:07;17.77;;;2.83;;
61903;SDS011;47857;52.270;6.804;2023-03-04T00:50:33;16.90;;;2.85;;
61903;SDS011;47857;52.270;6.804;2023-03-04T00:52:58;20.38;;;3.13;;
61903;SDS011;47857;52.270;6.804;2023-03-04T00:55:24;21.05;;;2.65;;
61903;SDS011;47857;52.270;6.804;2023-03-04T00:57:49;22.13;;;3.17;;
61903;SDS011;47857;52.270;6.804;2023-03-04T01:00:15;12.80;;;2.42;;
61903;SDS011;47857;52.270;6.804;2023-03-04T01:02:41;20.85;;;2.63;;
61903;SDS011;47857;52.270;6.804;2023-03-04T01:05:07;17.75;;;2.78;;
61903;SDS011;47857;52.270;6.804;2023-03-04T01:07:33;25.23;;;3.00;;
61903;SDS011;47857;52.270;6.804;2023-03-04T01:09:59;14.50;;;3.05;;
61903;SDS011;47857;52.270;6.804;2023-03-04T01:12:24;21.63;;;2.85;;
61903;SDS011;47857;52.270;6.804;2023-03-04T01:14:50;16.42;;;2.55;;
61903;SDS011;47857;52.270;6.804;2023-03-04T01:17:16;22.75;;;2.83;;
61903;SDS011;47857;52.270;6.804;2023-03-04T01:19:41;18.20;;;2.50;;
61903;SDS011;47857;52.270;6.804;2023-03-04T01:22:07;17.00;;;2.22;;
61903;SDS011;47857;52.270;6.804;2023-03-04T01:24:32;18.40;;;2.30;;
61903;SDS011;47857;52.270;6.804;2023-03-04T01:26:58;26.13;;;2.97;;
61903;SDS011;47857;52.270;6.804;2023-03-04T01:29:23;15.65;;;2.67;;
61903;SDS011;47857;52.270;6.804;2023-03-04T01:31:49;22.10;;;2.88;;
61903;SDS011;47857;52.270;6.804;2023-03-04T01:34:14;23.33;;;2.78;;
61903;SDS011;47857;52.270;6.804;2023-03-04T01:36:42;19.73;;;2.40;;
61903;SDS011;47857;52.270;6.804;2023-03-04T01:39:07;20.92;;;2.92;;
61903;SDS011;47857;52.270;6.804;2023-03-04T01:41:33;19.40;;;2.47;;
61903;SDS011;47857;52.270;6.804;2023-03-04T01:43:59;25.55;;;2.42;;
61903;SDS011;47857;52.270;6.804;2023-03-04T01:46:26;18.00;;;2.60;;
61903;SDS011;47857;52.270;6.804;2023-03-04T01:48:52;23.30;;;2.47;;
61903;SDS011;47857;52.270;6.804;2023-03-04T01:51:19;21.40;;;2.60;;
61903;SDS011;47857;52.270;6.804;2023-03-04T01:53:48;21.00;;;3.22;;
61903;SDS011;47857;52.270;6.804;2023-03-04T01:58:44;20.60;;;2.70;;
61903;SDS011;47857;52.270;6.804;2023-03-04T02:01:14;20.75;;;2.38;;
61903;SDS011;47857;52.270;6.804;2023-03-04T02:03:40;15.35;;;2.50;;
61903;SDS011;47857;52.270;6.804;2023-03-04T02:06:05;20.65;;;2.78;;
61903;SDS011;47857;52.270;6.804;2023-03-04T02:08:31;16.65;;;2.47;;
61903;SDS011;47857;52.270;6.804;2023-03-04T02:10:57;20.75;;;2.45;;
61903;SDS011;47857;52.270;6.804;2023-03-04T02:13:22;18.08;;;2.05;;
61903;SDS011;47857;52.270;6.804;2023-03-04T02:15:50;20.13;;;2.60;;
61903;SDS011;47857;52.270;6.804;2023-03-04T02:18:19;16.23;;;2.40;;
61903;SDS011;47857;52.270;6.804;2023-03-04T02:20:59;11.90;;;2.17;;
61903;SDS011;47857;52.270;6.804;2023-03-04T02:23:32;12.27;;;2.05;;
61903;SDS011;47857;52.270;6.804;2023-03-04T02:28:43;19.02;;;2.60;;
61903;SDS011;47857;52.270;6.804;2023-03-04T02:31:14;17.25;;;2.38;;
61903;SDS011;47857;52.270;6.804;2023-03-04T02:33:41;14.82;;;2.53;;
61903;SDS011;47857;52.270;6.804;2023-03-04T02:36:07;13.95;;;2.30;;
61903;SDS011;47857;52.270;6.804;2023-03-04T02:38:33;17.00;;;2.75;;
61903;SDS011;47857;52.270;6.804;2023-03-04T02:40:59;14.63;;;1.98;;
61903;SDS011;47857;52.270;6.804;2023-03-04T02:43:25;16.67;;;2.30;;
61903;SDS011;47857;52.270;6.804;2023-03-04T02:45:50;16.58;;;2.38;;
61903;SDS011;47857;52.270;6.804;2023-03-04T02:48:17;23.85;;;1.98;;
61903;SDS011;47857;52.270;6.804;2023-03-04T02:50:51;19.30;;;2.35;;
61903;SDS011;47857;52.270;6.804;2023-03-04T02:53:18;23.58;;;2.63;;
61903;SDS011;47857;52.270;6.804;2023-03-04T02:55:45;13.75;;;2.85;;
61903;SDS011;47857;52.270;6.804;2023-03-04T02:58:12;15.07;;;2.33;;
61903;SDS011;47857;52.270;6.804;2023-03-04T03:00:38;22.42;;;2.63;;
61903;SDS011;47857;52.270;6.804;2023-03-04T03:03:04;16.38;;;2.20;;
61903;SDS011;47857;52.270;6.804;2023-03-04T03:05:34;18.45;;;2.15;;
61903;SDS011;47857;52.270;6.804;2023-03-04T03:08:00;26.00;;;2.28;;
61903;SDS011;47857;52.270;6.804;2023-03-04T03:10:27;14.32;;;2.15;;
61903;SDS011;47857;52.270;6.804;2023-03-04T03:12:56;16.98;;;2.45;;
61903;SDS011;47857;52.270;6.804;2023-03-04T03:15:22;17.63;;;2.53;;
61903;SDS011;47857;52.270;6.804;2023-03-04T03:17:48;12.98;;;2.53;;
61903;SDS011;47857;52.270;6.804;2023-03-04T03:20:14;12.07;;;1.80;;
61903;SDS011;47857;52.270;6.804;2023-03-04T03:22:40;16.38;;;2.65;;
61903;SDS011;47857;52.270;6.804;2023-03-04T03:25:08;20.00;;;2.78;;
61903;SDS011;47857;52.270;6.804;2023-03-04T03:27:35;17.90;;;2.00;;
61903;SDS011;47857;52.270;6.804;2023-03-04T03:30:00;19.35;;;2.25;;
61903;SDS011;47857;52.270;6.804;2023-03-04T03:32:27;18.23;;;2.10;;
61903;SDS011;47857;52.270;6.804;2023-03-04T03:34:53;17.30;;;2.13;;
61903;SDS011;47857;52.270;6.804;2023-03-04T03:37:18;18.77;;;2.83;;
61903;SDS011;47857;52.270;6.804;2023-03-04T03:39:44;17.17;;;2.10;;
61903;SDS011;47857;52.270;6.804;2023-03-04T03:42:09;14.05;;;2.38;;
61903;SDS011;47857;52.270;6.804;2023-03-04T03:44:35;19.67;;;2.20;;
61903;SDS011;47857;52.270;6.804;2023-03-04T03:47:00;19.73;;;2.10;;
61903;SDS011;47857;52.270;6.804;2023-03-04T03:49:26;17.10;;;1.98;;
61903;SDS011;47857;52.270;6.804;2023-03-04T03:51:52;16.88;;;2.15;;
61903;SDS011;47857;52.270;6.804;2023-03-04T03:54:17;13.32;;;1.90;;
61903;SDS011;47857;52.270;6.804;2023-03-04T03:56:43;17.42;;;2.10;;
61903;SDS011;47857;52.270;6.804;2023-03-04T03:59:08;15.00;;;1.90;;
61903;SDS011;47857;52.270;6.804;2023-03-04T04:01:34;15.85;;;2.85;;
61903;SDS011;47857;52.270;6.804;2023-03-04T04:03:59;15.95;;;2.20;;
61903;SDS011;47857;52.270;6.804;2023-03-04T04:06:25;14.52;;;2.35;;
61903;SDS011;47857;52.270;6.804;2023-03-04T04:08:51;14.82;;;2.30;;
61903;SDS011;47857;52.270;6.804;2023-03-04T04:11:16;16.45;;;2.08;;
61903;SDS011;47857;52.270;6.804;2023-03-04T04:13:42;14.98;;;2.70;;
61903;SDS011;47857;52.270;6.804;2023-03-04T04:16:08;12.15;;;1.75;;
61903;SDS011;47857;52.270;6.804;2023-03-04T04:18:36;10.93;;;1.92;;
61903;SDS011;47857;52.270;6.804;2023-03-04T04:21:02;15.48;;;1.88;;
61903;SDS011;47857;52.270;6.804;2023-03-04T04:23:28;16.52;;;2.63;;
61903;SDS011;47857;52.270;6.804;2023-03-04T04:25:54;13.75;;;1.67;;
61903;SDS011;47857;52.270;6.804;2023-03-04T04:28:20;18.58;;;2.40;;
61903;SDS011;47857;52.270;6.804;2023-03-04T04:30:46;16.08;;;1.70;;
61903;SDS011;47857;52.270;6.804;2023-03-04T04:33:11;11.98;;;1.70;;
61903;SDS011;47857;52.270;6.804;2023-03-04T04:35:37;16.23;;;2.30;;
61903;SDS011;47857;52.270;6.804;2023-03-04T04:38:03;16.45;;;2.22;;
61903;SDS011;47857;52.270;6.804;2023-03-04T04:40:29;15.05;;;1.95;;
61903;SDS011;47857;52.270;6.804;2023-03-04T04:42:55;15.90;;;1.85;;
61903;SDS011;47857;52.270;6.804;2023-03-04T04:45:21;11.15;;;1.88;;
61903;SDS011;47857;52.270;6.804;2023-03-04T04:47:49;12.52;;;2.00;;
61903;SDS011;47857;52.270;6.804;2023-03-04T04:50:17;16.45;;;2.03;;
61903;SDS011;47857;52.270;6.804;2023-03-04T04:52:43;15.65;;;1.90;;
61903;SDS011;47857;52.270;6.804;2023-03-04T04:55:08;13.52;;;1.80;;
61903;SDS011;47857;52.270;6.804;2023-03-04T04:57:34;14.15;;;1.80;;
61903;SDS011;47857;52.270;6.804;2023-03-04T05:00:00;15.13;;;1.70;;
61903;SDS011;47857;52.270;6.804;2023-03-04T05:02:25;14.85;;;2.22;;
61903;SDS011;47857;52.270;6.804;2023-03-04T05:04:51;13.85;;;2.22;;
61903;SDS011;47857;52.270;6.804;2023-03-04T05:07:17;11.05;;;1.88;;
61903;SDS011;47857;52.270;6.804;2023-03-04T05:09:43;18.33;;;1.75;;
61903;SDS011;47857;52.270;6.804;2023-03-04T05:12:10;15.05;;;2.17;;
61903;SDS011;47857;52.270;6.804;2023-03-04T05:14:35;11.60;;;1.85;;
61903;SDS011;47857;52.270;6.804;2023-03-04T05:17:01;14.55;;;2.05;;
61903;SDS011;47857;52.270;6.804;2023-03-04T05:19:26;12.93;;;1.73;;
61903;SDS011;47857;52.270;6.804;2023-03-04T05:21:52;13.07;;;2.05;;
61903;SDS011;47857;52.270;6.804;2023-03-04T05:24:17;11.55;;;2.05;;
61903;SDS011;47857;52.270;6.804;2023-03-04T05:26:43;9.98;;;1.75;;
61903;SDS011;47857;52.270;6.804;2023-03-04T05:29:08;12.82;;;1.80;;
61903;SDS011;47857;52.270;6.804;2023-03-04T05:31:34;13.18;;;2.08;;
61903;SDS011;47857;52.270;6.804;2023-03-04T05:33:59;11.90;;;1.80;;
61903;SDS011;47857;52.270;6.804;2023-03-04T05:36:25;19.65;;;2.47;;
61903;SDS011;47857;52.270;6.804;2023-03-04T05:38:50;14.00;;;2.10;;
61903;SDS011;47857;52.270;6.804;2023-03-04T05:41:16;17.05;;;1.85;;
61903;SDS011;47857;52.270;6.804;2023-03-04T05:43:44;13.95;;;1.90;;
61903;SDS011;47857;52.270;6.804;2023-03-04T05:46:13;12.50;;;2.13;;
61903;SDS011;47857;52.270;6.804;2023-03-04T05:48:39;12.10;;;2.17;;
61903;SDS011;47857;52.270;6.804;2023-03-04T05:51:05;14.13;;;1.77;;
61903;SDS011;47857;52.270;6.804;2023-03-04T05:53:31;12.18;;;2.00;;
61903;SDS011;47857;52.270;6.804;2023-03-04T05:55:56;17.33;;;1.75;;
61903;SDS011;47857;52.270;6.804;2023-03-04T05:58:24;11.23;;;1.70;;
61903;SDS011;47857;52.270;6.804;2023-03-04T06:00:49;15.10;;;2.03;;
61903;SDS011;47857;52.270;6.804;2023-03-04T06:03:18;12.65;;;2.05;;
61903;SDS011;47857;52.270;6.804;2023-03-04T06:05:45;13.27;;;1.80;;
61903;SDS011;47857;52.270;6.804;2023-03-04T06:08:11;14.23;;;2.00;;
61903;SDS011;47857;52.270;6.804;2023-03-04T06:10:37;16.10;;;2.15;;
61903;SDS011;47857;52.270;6.804;2023-03-04T06:13:03;12.52;;;1.92;;
61903;SDS011;47857;52.270;6.804;2023-03-04T06:15:29;13.73;;;1.65;;
61903;SDS011;47857;52.270;6.804;2023-03-04T06:17:55;9.02;;;1.73;;
61903;SDS011;47857;52.270;6.804;2023-03-04T06:20:20;12.27;;;2.03;;
61903;SDS011;47857;52.270;6.804;2023-03-04T06:22:46;14.48;;;1.83;;
61903;SDS011;47857;52.270;6.804;2023-03-04T06:25:11;15.60;;;1.98;;
61903;SDS011;47857;52.270;6.804;2023-03-04T06:27:37;11.68;;;1.90;;
61903;SDS011;47857;52.270;6.804;2023-03-04T06:30:03;12.07;;;2.05;;
61903;SDS011;47857;52.270;6.804;2023-03-04T06:32:28;15.68;;;2.03;;
61903;SDS011;47857;52.270;6.804;2023-03-04T06:34:54;13.40;;;2.15;;
61903;SDS011;47857;52.270;6.804;2023-03-04T06:37:20;11.98;;;2.13;;
61903;SDS011;47857;52.270;6.804;2023-03-04T06:39:45;14.35;;;1.98;;
61903;SDS011;47857;52.270;6.804;2023-03-04T06:42:11;15.90;;;2.00;;
61903;SDS011;47857;52.270;6.804;2023-03-04T06:44:36;11.52;;;1.80;;
61903;SDS011;47857;52.270;6.804;2023-03-04T06:47:02;16.17;;;2.17;;
61903;SDS011;47857;52.270;6.804;2023-03-04T06:49:28;16.83;;;2.08;;
61903;SDS011;47857;52.270;6.804;2023-03-04T06:51:54;13.32;;;2.45;;
61903;SDS011;47857;52.270;6.804;2023-03-04T06:54:19;14.82;;;1.88;;
61903;SDS011;47857;52.270;6.804;2023-03-04T06:56:45;18.20;;;2.25;;
61903;SDS011;47857;52.270;6.804;2023-03-04T06:59:11;15.90;;;2.03;;
61903;SDS011;47857;52.270;6.804;2023-03-04T07:01:36;12.23;;;1.98;;
61903;SDS011;47857;52.270;6.804;2023-03-04T07:04:02;16.95;;;2.35;;
61903;SDS011;47857;52.270;6.804;2023-03-04T07:06:27;16.17;;;2.38;;
61903;SDS011;47857;52.270;6.804;2023-03-04T07:08:53;12.95;;;2.20;;
61903;SDS011;47857;52.270;6.804;2023-03-04T07:11:19;13.60;;;2.55;;
61903;SDS011;47857;52.270;6.804;2023-03-04T07:13:46;13.50;;;1.60;;
61903;SDS011;47857;52.270;6.804;2023-03-04T07:16:13;15.13;;;1.95;;
61903;SDS011;47857;52.270;6.804;2023-03-04T07:18:41;14.82;;;1.92;;
61903;SDS011;47857;52.270;6.804;2023-03-04T07:21:08;19.92;;;2.45;;
61903;SDS011;47857;52.270;6.804;2023-03-04T07:23:33;17.13;;;2.40;;
61903;SDS011;47857;52.270;6.804;2023-03-04T07:25:59;15.85;;;2.53;;
61903;SDS011;47857;52.270;6.804;2023-03-04T07:28:25;18.90;;;2.45;;
61903;SDS011;47857;52.270;6.804;2023-03-04T07:30:54;15.15;;;2.20;;
61903;SDS011;47857;52.270;6.804;2023-03-04T07:33:19;16.48;;;2.53;;
61903;SDS011;47857;52.270;6.804;2023-03-04T07:35:45;15.55;;;2.00;;
61903;SDS011;47857;52.270;6.804;2023-03-04T07:38:10;14.52;;;2.03;;
61903;SDS011;47857;52.270;6.804;2023-03-04T07:40:36;9.90;;;1.77;;
61903;SDS011;47857;52.270;6.804;2023-03-04T07:43:01;12.88;;;2.22;;
61903;SDS011;47857;52.270;6.804;2023-03-04T07:45:27;11.13;;;2.58;;
61903;SDS011;47857;52.270;6.804;2023-03-04T07:47:53;11.23;;;2.30;;
61903;SDS011;47857;52.270;6.804;2023-03-04T07:50:19;10.05;;;2.00;;
61903;SDS011;47857;52.270;6.804;2023-03-04T07:52:46;15.80;;;2.65;;
61903;SDS011;47857;52.270;6.804;2023-03-04T07:55:13;9.50;;;2.20;;
61903;SDS011;47857;52.270;6.804;2023-03-04T07:57:43;12.82;;;2.38;;
61903;SDS011;47857;52.270;6.804;2023-03-04T08:00:11;15.57;;;2.30;;
61903;SDS011;47857;52.270;6.804;2023-03-04T08:02:38;12.18;;;2.63;;
61903;SDS011;47857;52.270;6.804;2023-03-04T08:05:04;10.95;;;2.00;;
61903;SDS011;47857;52.270;6.804;2023-03-04T08:07:30;10.75;;;2.30;;
61903;SDS011;47857;52.270;6.804;2023-03-04T08:09:55;12.32;;;1.90;;
61903;SDS011;47857;52.270;6.804;2023-03-04T08:12:21;16.65;;;2.40;;
61903;SDS011;47857;52.270;6.804;2023-03-04T08:14:49;13.63;;;2.25;;
61903;SDS011;47857;52.270;6.804;2023-03-04T08:17:15;12.68;;;2.88;;
61903;SDS011;47857;52.270;6.804;2023-03-04T08:19:40;14.05;;;2.78;;
61903;SDS011;47857;52.270;6.804;2023-03-04T08:22:06;13.50;;;2.20;;
61903;SDS011;47857;52.270;6.804;2023-03-04T08:24:31;10.02;;;2.63;;
61903;SDS011;47857;52.270;6.804;2023-03-04T08:26:57;22.08;;;2.58;;
61903;SDS011;47857;52.270;6.804;2023-03-04T08:29:23;13.27;;;2.33;;
61903;SDS011;47857;52.270;6.804;2023-03-04T08:31:49;13.02;;;2.35;;
61903;SDS011;47857;52.270;6.804;2023-03-04T08:34:16;10.55;;;2.30;;
61903;SDS011;47857;52.270;6.804;2023-03-04T09:55:56;6.97;;;1.92;;
61903;SDS011;47857;52.270;6.804;2023-03-04T10:00:54;5.75;;;1.50;;
61903;SDS011;47857;52.270;6.804;2023-03-04T10:03:23;6.18;;;1.67;;
61903;SDS011;47857;52.270;6.804;2023-03-04T10:05:52;4.78;;;1.80;;
61903;SDS011;47857;52.270;6.804;2023-03-04T10:08:38;5.95;;;1.30;;
61903;SDS011;47857;52.270;6.804;2023-03-04T10:11:23;6.00;;;1.33;;
61903;SDS011;47857;52.270;6.804;2023-03-04T10:21:38;6.70;;;1.65;;
61903;SDS011;47857;52.270;6.804;2023-03-04T10:24:13;7.50;;;1.75;;
61903;SDS011;47857;52.270;6.804;2023-03-04T10:26:43;5.43;;;1.42;;
61903;SDS011;47857;52.270;6.804;2023-03-04T10:29:12;10.93;;;1.83;;
61903;SDS011;47857;52.270;6.804;2023-03-04T10:31:40;2.97;;;1.23;;
61903;SDS011;47857;52.270;6.804;2023-03-04T10:34:09;7.43;;;1.52;;
61903;SDS011;47857;52.270;6.804;2023-03-04T10:36:38;8.05;;;1.38;;
61903;SDS011;47857;52.270;6.804;2023-03-04T10:39:17;6.68;;;1.40;;
61903;SDS011;47857;52.270;6.804;2023-03-04T10:41:52;6.43;;;1.08;;
61903;SDS011;47857;52.270;6.804;2023-03-04T10:44:19;4.82;;;1.13;;
61903;SDS011;47857;52.270;6.804;2023-03-04T10:46:46;5.32;;;1.35;;
61903;SDS011;47857;52.270;6.804;2023-03-04T10:49:13;4.80;;;1.00;;
61903;SDS011;47857;52.270;6.804;2023-03-04T10:51:46;6.82;;;1.40;;
61903;SDS011;47857;52.270;6.804;2023-03-04T10:57:32;5.57;;;1.33;;
61903;SDS011;47857;52.270;6.804;2023-03-04T11:00:00;11.13;;;1.60;;
61903;SDS011;47857;52.270;6.804;2023-03-04T11:02:29;7.20;;;1.50;;
61903;SDS011;47857;52.270;6.804;2023-03-04T11:07:42;17.85;;;2.75;;
61903;SDS011;47857;52.270;6.804;2023-03-04T11:10:38;10.40;;;1.90;;
61903;SDS011;47857;52.270;6.804;2023-03-04T11:13:02;10.23;;;2.72;;
61903;SDS011;47857;52.270;6.804;2023-03-04T11:15:47;9.38;;;1.77;;
61903;SDS011;47857;52.270;6.804;2023-03-04T11:18:13;13.30;;;2.50;;
61903;SDS011;47857;52.270;6.804;2023-03-04T11:20:40;13.85;;;2.00;;
61903;SDS011;47857;52.270;6.804;2023-03-04T11:23:18;8.80;;;1.60;;
61903;SDS011;47857;52.270;6.804;2023-03-04T11:25:51;14.32;;;1.90;;
61903;SDS011;47857;52.270;6.804;2023-03-04T11:28:21;8.70;;;1.73;;
61903;SDS011;47857;52.270;6.804;2023-03-04T11:30:58;9.85;;;1.90;;
61903;SDS011;47857;52.270;6.804;2023-03-04T11:35:56;12.40;;;1.70;;
61903;SDS011;47857;52.270;6.804;2023-03-04T11:38:47;11.63;;;1.98;;
61903;SDS011;47857;52.270;6.804;2023-03-04T11:41:21;13.38;;;1.98;;
61903;SDS011;47857;52.270;6.804;2023-03-04T11:43:54;10.90;;;1.75;;
61903;SDS011;47857;52.270;6.804;2023-03-04T11:54:33;16.88;;;2.38;;
61903;SDS011;47857;52.270;6.804;2023-03-04T11:59:55;18.92;;;3.00;;
61903;SDS011;47857;52.270;6.804;2023-03-04T12:02:46;19.10;;;2.72;;
61903;SDS011;47857;52.270;6.804;2023-03-04T12:05:40;15.50;;;2.08;;
61903;SDS011;47857;52.270;6.804;2023-03-04T12:09:17;14.85;;;2.92;;
61903;SDS011;47857;52.270;6.804;2023-03-04T12:11:39;12.25;;;2.00;;
61903;SDS011;47857;52.270;6.804;2023-03-04T12:19:45;16.30;;;2.05;;
61903;SDS011;47857;52.270;6.804;2023-03-04T12:33:35;16.70;;;2.60;;
61903;SDS011;47857;52.270;6.804;2023-03-04T12:46:36;17.60;;;2.50;;
61903;SDS011;47857;52.270;6.804;2023-03-04T12:51:57;21.27;;;3.03;;
61903;SDS011;47857;52.270;6.804;2023-03-04T12:54:31;20.13;;;3.17;;
61903;SDS011;47857;52.270;6.804;2023-03-04T12:59:42;15.52;;;2.72;;
61903;SDS011;47857;52.270;6.804;2023-03-04T13:07:31;15.18;;;2.00;;
61903;SDS011;47857;52.270;6.804;2023-03-04T13:10:18;11.75;;;1.95;;
61903;SDS011;47857;52.270;6.804;2023-03-04T13:13:31;13.20;;;1.90;;
61903;SDS011;47857;52.270;6.804;2023-03-04T13:17:58;11.30;;;1.45;;
61903;SDS011;47857;52.270;6.804;2023-03-04T13:32:56;15.70;;;2.25;;
61903;SDS011;47857;52.270;6.804;2023-03-04T13:43:48;3.53;;;0.93;;
61903;SDS011;47857;52.270;6.804;2023-03-04T13:48:42;7.97;;;1.45;;
61903;SDS011;47857;52.270;6.804;2023-03-04T13:51:13;9.98;;;2.22;;
61903;SDS011;47857;52.270;6.804;2023-03-04T13:53:53;5.45;;;1.20;;
61903;SDS011;47857;52.270;6.804;2023-03-04T13:56:27;7.90;;;1.27;;
61903;SDS011;47857;52.270;6.804;2023-03-04T13:59:03;8.90;;;2.13;;
61903;SDS011;47857;52.270;6.804;2023-03-04T14:01:30;9.07;;;1.80;;
61903;SDS011;47857;52.270;6.804;2023-03-04T14:03:59;11.15;;;3.22;;
61903;SDS011;47857;52.270;6.804;2023-03-04T14:08:54;5.93;;;1.17;;
61903;SDS011;47857;52.270;6.804;2023-03-04T14:11:37;13.18;;;2.25;;
61903;SDS011;47857;52.270;6.804;2023-03-04T14:14:07;11.45;;;2.30;;
61903;SDS011;47857;52.270;6.804;2023-03-04T14:16:43;15.60;;;2.40;;
61903;SDS011;47857;52.270;6.804;2023-03-04T14:19:37;11.30;;;2.22;;
61903;SDS011;47857;52.270;6.804;2023-03-04T14:25:00;14.30;;;2.25;;
61903;SDS011;47857;52.270;6.804;2023-03-04T14:27:30;12.45;;;2.00;;
61903;SDS011;47857;52.270;6.804;2023-03-04T14:30:00;13.82;;;2.70;;
61903;SDS011;47857;52.270;6.804;2023-03-04T14:32:27;12.30;;;2.60;;
61903;SDS011;47857;52.270;6.804;2023-03-04T14:34:56;17.00;;;2.28;;
61903;SDS011;47857;52.270;6.804;2023-03-04T14:37:25;13.70;;;3.47;;
61903;SDS011;47857;52.270;6.804;2023-03-04T14:39:53;15.40;;;3.33;;
61903;SDS011;47857;52.270;6.804;2023-03-04T14:42:21;15.65;;;2.72;;
61903;SDS011;47857;52.270;6.804;2023-03-04T14:44:48;18.38;;;3.00;;
61903;SDS011;47857;52.270;6.804;2023-03-04T14:50:04;18.02;;;3.00;;
61903;SDS011;47857;52.270;6.804;2023-03-04T14:52:38;17.38;;;2.35;;
61903;SDS011;47857;52.270;6.804;2023-03-04T14:57:40;21.13;;;4.72;;
61903;SDS011;47857;52.270;6.804;2023-03-04T15:02:47;20.88;;;4.25;;
61903;SDS011;47857;52.270;6.804;2023-03-04T15:05:18;17.52;;;3.25;;
61903;SDS011;47857;52.270;6.804;2023-03-04T15:07:51;25.92;;;4.20;;
61903;SDS011;47857;52.270;6.804;2023-03-04T15:10:28;18.23;;;3.42;;
61903;SDS011;47857;52.270;6.804;2023-03-04T15:12:59;18.50;;;3.30;;
61903;SDS011;47857;52.270;6.804;2023-03-04T15:17:59;18.42;;;3.10;;
61903;SDS011;47857;52.270;6.804;2023-03-04T15:20:29;13.55;;;2.40;;
61903;SDS011;47857;52.270;6.804;2023-03-04T15:22:56;12.77;;;2.00;;
61903;SDS011;47857;52.270;6.804;2023-03-04T15:25:23;13.55;;;2.92;;
61903;SDS011;47857;52.270;6.804;2023-03-04T15:27:49;15.77;;;3.45;;
61903;SDS011;47857;52.270;6.804;2023-03-04T15:30:19;14.50;;;2.67;;
61903;SDS011;47857;52.270;6.804;2023-03-04T15:32:48;18.60;;;3.75;;
61903;SDS011;47857;52.270;6.804;2023-03-04T15:35:14;17.17;;;2.80;;
61903;SDS011;47857;52.270;6.804;2023-03-04T15:37:40;16.08;;;3.75;;
61903;SDS011;47857;52.270;6.804;2023-03-04T15:40:17;19.40;;;2.90;;
61903;SDS011;47857;52.270;6.804;2023-03-04T15:42:55;16.75;;;3.22;;
61903;SDS011;47857;52.270;6.804;2023-03-04T15:47:48;19.58;;;2.85;;
61903;SDS011;47857;52.270;6.804;2023-03-04T15:50:15;19.55;;;3.03;;
61903;SDS011;47857;52.270;6.804;2023-03-04T15:52:41;16.23;;;2.90;;
61903;SDS011;47857;52.270;6.804;2023-03-04T15:55:11;19.30;;;4.30;;
61903;SDS011;47857;52.270;6.804;2023-03-04T15:57:39;17.00;;;2.92;;
61903;SDS011;47857;52.270;6.804;2023-03-04T16:00:05;15.93;;;2.53;;
61903;SDS011;47857;52.270;6.804;2023-03-04T16:02:36;22.33;;;3.22;;
61903;SDS011;47857;52.270;6.804;2023-03-04T16:05:02;15.60;;;2.80;;
61903;SDS011;47857;52.270;6.804;2023-03-04T16:07:28;22.33;;;2.90;;
61903;SDS011;47857;52.270;6.804;2023-03-04T16:09:55;20.30;;;2.65;;
61903;SDS011;47857;52.270;6.804;2023-03-04T16:12:23;19.25;;;2.70;;
61903;SDS011;47857;52.270;6.804;2023-03-04T16:14:48;18.42;;;2.22;;
61903;SDS011;47857;52.270;6.804;2023-03-04T16:17:15;15.77;;;3.60;;
61903;SDS011;47857;52.270;6.804;2023-03-04T16:19:40;12.60;;;3.42;;
61903;SDS011;47857;52.270;6.804;2023-03-04T16:22:08;14.73;;;2.38;;
61903;SDS011;47857;52.270;6.804;2023-03-04T16:24:39;14.13;;;2.97;;
61903;SDS011;47857;52.270;6.804;2023-03-04T16:27:09;21.00;;;3.65;;
61903;SDS011;47857;52.270;6.804;2023-03-04T16:29:35;14.07;;;2.40;;
61903;SDS011;47857;52.270;6.804;2023-03-04T16:32:00;15.02;;;2.35;;
61903;SDS011;47857;52.270;6.804;2023-03-04T16:34:26;13.55;;;2.60;;
61903;SDS011;47857;52.270;6.804;2023-03-04T16:36:51;13.27;;;4.93;;
61903;SDS011;47857;52.270;6.804;2023-03-04T16:39:19;12.75;;;2.50;;
61903;SDS011;47857;52.270;6.804;2023-03-04T16:41:47;17.95;;;3.17;;
61903;SDS011;47857;52.270;6.804;2023-03-04T16:44:12;16.02;;;3.05;;
61903;SDS011;47857;52.270;6.804;2023-03-04T16:46:39;19.58;;;3.10;;
61903;SDS011;47857;52.270;6.804;2023-03-04T16:49:04;21.30;;;6.80;;
61903;SDS011;47857;52.270;6.804;2023-03-04T16:51:30;17.92;;;3.03;;
61903;SDS011;47857;52.270;6.804;2023-03-04T16:53:59;12.18;;;2.80;;
61903;SDS011;47857;52.270;6.804;2023-03-04T16:56:25;11.68;;;3.33;;
61903;SDS011;47857;52.270;6.804;2023-03-04T16:58:51;8.02;;;1.70;;
61903;SDS011;47857;52.270;6.804;2023-03-04T17:01:22;10.18;;;2.35;;
61903;SDS011;47857;52.270;6.804;2023-03-04T17:03:52;12.60;;;2.20;;
61903;SDS011;47857;52.270;6.804;2023-03-04T17:06:19;11.05;;;2.00;;
61903;SDS011;47857;52.270;6.804;2023-03-04T17:08:45;13.20;;;2.05;;
61903;SDS011;47857;52.270;6.804;2023-03-04T17:11:11;12.68;;;2.25;;
61903;SDS011;47857;52.270;6.804;2023-03-04T17:13:40;12.93;;;2.15;;
61903;SDS011;47857;52.270;6.804;2023-03-04T17:16:05;14.70;;;3.17;;
61903;SDS011;47857;52.270;6.804;2023-03-04T17:18:31;14.23;;;2.15;;
61903;SDS011;47857;52.270;6.804;2023-03-04T17:21:01;11.60;;;2.08;;
61903;SDS011;47857;52.270;6.804;2023-03-04T17:23:27;11.05;;;2.00;;
61903;SDS011;47857;52.270;6.804;2023-03-04T17:25:56;16.13;;;2.28;;
61903;SDS011;47857;52.270;6.804;2023-03-04T17:28:23;16.25;;;2.63;;
61903;SDS011;47857;52.270;6.804;2023-03-04T17:30:48;15.20;;;2.60;;
61903;SDS011;47857;52.270;6.804;2023-03-04T17:33:14;15.65;;;2.33;;
61903;SDS011;47857;52.270;6.804;2023-03-04T17:35:39;14.95;;;3.17;;
61903;SDS011;47857;52.270;6.804;2023-03-04T17:38:05;25.63;;;10.00;;
61903;SDS011;47857;52.270;6.804;2023-03-04T17:40:31;15.27;;;2.47;;
61903;SDS011;47857;52.270;6.804;2023-03-04T17:42:56;14.48;;;2.17;;
61903;SDS011;47857;52.270;6.804;2023-03-04T17:45:22;14.60;;;2.40;;
61903;SDS011;47857;52.270;6.804;2023-03-04T17:47:47;14.80;;;3.33;;
61903;SDS011;47857;52.270;6.804;2023-03-04T17:50:13;15.68;;;6.18;;
61903;SDS011;47857;52.270;6.804;2023-03-04T17:52:38;16.08;;;4.80;;
61903;SDS011;47857;52.270;6.804;2023-03-04T17:55:04;12.48;;;2.25;;
61903;SDS011;47857;52.270;6.804;2023-03-04T17:57:30;17.08;;;2.90;;